createdAt,value
2022-08-09T00:00:00.283Z,16.27
2022-08-09T00:00:51.859Z,16.27
2022-08-09T00:01:55.067Z,16.27
2022-08-09T00:02:51.613Z,16.27
2022-08-09T00:04:06.118Z,16.30
2022-08-09T00:05:02.947Z,16.30
2022-08-09T00:06:18.563Z,16.33
2022-08-09T00:06:52.729Z,16.34
2022-08-09T00:07:54.212Z,16.34
2022-08-09T00:08:52.011Z,16.31
2022-08-09T00:09:50.621Z,16.33
2022-08-09T00:10:50.744Z,16.31
2022-08-09T00:12:02.634Z,16.30
2022-08-09T00:12:53.041Z,16.28
2022-08-09T00:13:50.491Z,16.25
2022-08-09T00:14:50.516Z,16.23
2022-08-09T00:15:58.985Z,16.21
2022-08-09T00:16:51.471Z,16.20
2022-08-09T00:18:05.513Z,16.15
2022-08-09T00:18:51.523Z,16.12
2022-08-09T00:19:50.445Z,16.12
2022-08-09T00:20:50.586Z,16.09
2022-08-09T00:21:55.562Z,16.12
2022-08-09T00:22:51.499Z,16.11
2022-08-09T00:23:57.830Z,16.11
2022-08-09T00:24:51.708Z,16.07
2022-08-09T00:25:51.694Z,16.08
2022-08-09T00:26:50.378Z,16.05
2022-08-09T00:27:50.368Z,16.04
2022-08-09T00:28:52.370Z,16.05
2022-08-09T00:30:23.616Z,16.05
2022-08-09T00:30:51.356Z,16.04
2022-08-09T00:31:58.528Z,16.04
2022-08-09T00:32:51.369Z,16.01
2022-08-09T00:33:51.986Z,15.97
2022-08-09T00:34:52.294Z,15.96
2022-08-09T00:35:50.530Z,15.96
2022-08-09T00:36:50.385Z,15.92
2022-08-09T00:37:50.396Z,15.92
2022-08-09T00:38:50.779Z,15.92
2022-08-09T00:40:12.753Z,15.90
2022-08-09T00:40:52.786Z,15.87
2022-08-09T00:44:10.125Z,15.87
2022-08-09T00:44:10.960Z,15.89
2022-08-09T00:44:14.739Z,15.86
2022-08-09T00:44:51.161Z,15.86
2022-08-09T00:45:53.941Z,15.83
2022-08-09T00:46:57.658Z,15.82
2022-08-09T00:47:51.196Z,15.82
2022-08-09T00:48:50.218Z,15.82
2022-08-09T00:49:52.594Z,15.82
2022-08-09T00:50:52.269Z,15.80
2022-08-09T00:51:55.989Z,15.76
2022-08-09T00:52:51.049Z,15.78
2022-08-09T00:53:51.952Z,15.75
2022-08-09T00:54:50.034Z,15.74
2022-08-09T00:56:04.605Z,15.74
2022-08-09T00:56:51.312Z,15.72
2022-08-09T00:57:50.078Z,15.71
2022-08-09T00:58:50.038Z,15.69
2022-08-09T00:59:52.528Z,15.67
2022-08-09T01:00:50.042Z,15.64
2022-08-09T01:01:50.012Z,15.62
2022-08-09T01:02:49.992Z,15.59
2022-08-09T01:03:49.964Z,15.59
2022-08-09T01:04:50.000Z,15.54
2022-08-09T01:05:53.376Z,15.54
2022-08-09T01:06:54.565Z,15.54
2022-08-09T01:08:00.087Z,15.51
2022-08-09T01:08:51.486Z,15.50
2022-08-09T01:10:00.039Z,15.50
2022-08-09T01:10:51.311Z,15.50
2022-08-09T01:11:55.686Z,15.49
2022-08-09T01:12:50.890Z,15.49
2022-08-09T01:13:59.374Z,15.47
2022-08-09T01:14:52.534Z,15.46
2022-08-09T01:15:51.837Z,15.46
2022-08-09T01:16:49.919Z,15.47
2022-08-09T01:17:50.102Z,15.44
2022-08-09T01:19:01.991Z,15.44
2022-08-09T01:19:57.166Z,15.43
2022-08-09T01:20:50.811Z,15.39
2022-08-09T01:21:51.148Z,15.41
2022-08-09T01:22:51.960Z,15.39
2022-08-09T01:24:00.985Z,15.36
2022-08-09T01:24:52.199Z,15.35
2022-08-09T01:25:51.285Z,15.31
2022-08-09T01:26:52.971Z,15.32
2022-08-09T01:27:50.753Z,15.29
2022-08-09T01:28:50.806Z,15.29
2022-08-09T01:29:56.138Z,15.31
2022-08-09T01:30:51.940Z,15.31
2022-08-09T01:32:37.748Z,15.28
2022-08-09T01:32:51.693Z,15.28
2022-08-09T01:33:49.728Z,15.25
2022-08-09T01:34:49.689Z,15.25
2022-08-09T01:35:51.949Z,15.27
2022-08-09T01:36:49.797Z,15.27
2022-08-09T01:38:07.858Z,15.27
2022-08-09T01:38:51.002Z,15.27
2022-08-09T01:39:50.705Z,15.23
2022-08-09T01:40:52.760Z,15.21
2022-08-09T01:41:55.559Z,15.20
2022-08-09T01:42:50.737Z,15.19
2022-08-09T01:43:51.918Z,15.20
2022-08-09T01:44:49.630Z,15.19
2022-08-09T01:45:49.628Z,15.17
2022-08-09T01:46:49.648Z,15.19
2022-08-09T01:47:49.870Z,15.17
2022-08-09T01:48:49.770Z,15.17
2022-08-09T01:49:50.885Z,15.19
2022-08-09T01:50:55.071Z,15.17
2022-08-09T01:51:53.408Z,15.17
2022-08-09T01:52:50.703Z,15.16
2022-08-09T01:53:49.438Z,15.17
2022-08-09T01:54:49.440Z,15.17
2022-08-09T01:55:49.431Z,15.16
2022-08-09T01:56:51.424Z,15.14
2022-08-09T01:57:52.851Z,15.13
2022-08-09T01:58:49.821Z,15.16
2022-08-09T01:59:52.130Z,15.16
2022-08-09T02:00:50.518Z,15.14
2022-08-09T02:02:00.293Z,15.13
2022-08-09T02:02:50.372Z,15.11
2022-08-09T02:03:49.338Z,15.09
2022-08-09T02:04:49.361Z,15.09
2022-08-09T02:06:03.989Z,15.01
2022-08-09T02:06:54.439Z,14.98
2022-08-09T02:08:39.147Z,14.96
2022-08-09T02:08:57.660Z,14.94
2022-08-09T02:09:59.482Z,14.89
2022-08-09T02:10:51.231Z,14.88
2022-08-09T02:11:49.218Z,14.86
2022-08-09T02:13:02.314Z,14.84
2022-08-09T02:14:06.337Z,14.81
2022-08-09T02:14:51.708Z,14.78
2022-08-09T02:15:50.566Z,14.80
2022-08-09T02:16:59.873Z,14.80
2022-08-09T02:18:00.908Z,14.75
2022-08-09T02:18:50.189Z,14.75
2022-08-09T02:19:49.189Z,14.73
2022-08-09T02:20:49.179Z,14.73
2022-08-09T02:21:49.255Z,14.72
2022-08-09T02:22:50.205Z,14.69
2022-08-09T02:23:49.344Z,14.70
2022-08-09T02:24:51.819Z,14.70
2022-08-09T02:25:49.445Z,14.68
2022-08-09T02:26:49.081Z,14.70
2022-08-09T02:27:57.638Z,14.69
2022-08-09T02:28:50.085Z,14.65
2022-08-09T02:29:49.018Z,14.65
2022-08-09T02:30:49.024Z,14.69
2022-08-09T02:31:49.030Z,14.70
2022-08-09T02:32:48.987Z,14.69
2022-08-09T02:34:07.230Z,14.69
2022-08-09T02:34:55.775Z,14.68
2022-08-09T02:36:03.549Z,14.64
2022-08-09T02:36:52.496Z,14.65
2022-08-09T02:37:48.957Z,14.62
2022-08-09T02:38:49.011Z,14.58
2022-08-09T02:39:49.926Z,14.55
2022-08-09T02:40:50.164Z,14.54
2022-08-09T02:41:48.921Z,14.51
2022-08-09T02:42:50.976Z,14.54
2022-08-09T02:46:08.230Z,14.50
2022-08-09T02:47:08.055Z,14.46
2022-08-09T02:48:16.394Z,14.43
2022-08-09T02:49:10.042Z,14.42
2022-08-09T02:50:08.083Z,14.39
2022-08-09T02:51:08.282Z,14.37
2022-08-09T02:52:08.036Z,14.36
2022-08-09T02:53:08.154Z,14.33
2022-08-09T02:54:07.917Z,14.33
2022-08-09T02:55:20.821Z,14.28
2022-08-09T02:56:09.017Z,14.25
2022-08-09T02:57:13.601Z,14.22
2022-08-09T02:58:36.914Z,14.24
2022-08-09T02:59:08.900Z,14.22
2022-08-09T03:00:21.257Z,14.21
2022-08-09T03:01:10.986Z,14.18
2022-08-09T03:02:12.248Z,14.20
2022-08-09T03:03:08.835Z,14.20
2022-08-09T03:04:18.426Z,14.17
2022-08-09T03:05:08.797Z,14.14
2022-08-09T03:06:08.883Z,14.15
2022-08-09T03:07:14.327Z,14.15
2022-08-09T03:08:08.751Z,14.15
2022-08-09T03:09:07.768Z,14.15
2022-08-09T03:10:07.775Z,14.17
2022-08-09T03:11:10.400Z,14.17
2022-08-09T03:12:10.987Z,14.17
2022-08-09T03:13:09.883Z,14.20
2022-08-09T03:14:07.731Z,14.17
2022-08-09T03:15:07.740Z,14.15
2022-08-09T03:16:07.684Z,14.12
2022-08-09T03:17:07.656Z,14.12
2022-08-09T03:18:09.864Z,14.09
2022-08-09T03:19:16.731Z,14.06
2022-08-09T03:20:11.547Z,14.02
2022-08-09T03:21:07.674Z,14.00
2022-08-09T03:22:12.321Z,14.04
2022-08-09T03:23:15.234Z,14.03
2022-08-09T03:24:10.117Z,14.04
2022-08-09T03:25:25.791Z,14.04
2022-08-09T03:26:08.600Z,14.09
2022-08-09T03:27:07.563Z,14.07
2022-08-09T03:28:11.323Z,14.04
2022-08-09T03:29:13.459Z,14.00
2022-08-09T03:30:08.534Z,13.99
2022-08-09T03:31:10.479Z,13.92
2022-08-09T03:32:08.546Z,13.92
2022-08-09T03:33:17.850Z,13.89
2022-08-09T03:34:08.481Z,13.91
2022-08-09T03:35:15.116Z,13.88
2022-08-09T03:36:13.618Z,13.85
2022-08-09T03:37:54.842Z,13.84
2022-08-09T03:38:08.494Z,13.81
2022-08-09T03:39:08.443Z,13.81
2022-08-09T03:40:07.466Z,13.77
2022-08-09T03:41:08.407Z,13.78
2022-08-09T03:42:07.419Z,13.77
2022-08-09T03:43:07.406Z,13.77
2022-08-09T03:44:08.960Z,13.77
2022-08-09T03:45:07.398Z,13.75
2022-08-09T03:46:20.599Z,13.73
2022-08-09T03:47:08.374Z,13.71
2022-08-09T03:48:07.321Z,13.73
2022-08-09T03:49:07.850Z,13.73
2022-08-09T03:50:07.314Z,13.75
2022-08-09T03:51:07.315Z,13.75
2022-08-09T03:52:08.283Z,13.71
2022-08-09T03:53:07.387Z,13.71
2022-08-09T03:54:10.842Z,13.67
2022-08-09T03:55:07.599Z,13.67
2022-08-09T03:56:07.255Z,13.62
2022-08-09T03:57:18.163Z,13.59
2022-08-09T03:58:16.547Z,13.54
2022-08-09T03:59:08.206Z,13.54
2022-08-09T04:00:08.222Z,13.54
2022-08-09T04:01:07.235Z,13.52
2022-08-09T04:02:07.176Z,13.49
2022-08-09T04:03:07.160Z,13.48
2022-08-09T04:04:14.433Z,13.48
2022-08-09T04:05:27.336Z,13.48
2022-08-09T04:06:08.180Z,13.46
2022-08-09T04:07:07.153Z,13.46
2022-08-09T04:08:07.108Z,13.48
2022-08-09T04:09:41.810Z,13.49
2022-08-09T04:10:08.084Z,13.54
2022-08-09T04:11:11.158Z,13.54
2022-08-09T04:12:07.300Z,13.52
2022-08-09T04:13:07.069Z,13.52
2022-08-09T04:14:37.247Z,13.49
2022-08-09T04:15:17.361Z,13.46
2022-08-09T04:16:19.736Z,13.45
2022-08-09T04:17:08.027Z,13.46
2022-08-09T04:18:06.990Z,13.46
2022-08-09T04:19:10.820Z,13.46
2022-08-09T04:20:06.966Z,13.46
2022-08-09T04:21:06.967Z,13.45
2022-08-09T04:22:06.979Z,13.46
2022-08-09T04:23:10.103Z,13.46
2022-08-09T04:24:07.925Z,13.45
2022-08-09T04:25:06.911Z,13.45
2022-08-09T04:26:06.978Z,13.48
2022-08-09T04:27:06.909Z,13.46
2022-08-09T04:28:06.862Z,13.49
2022-08-09T04:29:12.105Z,13.54
2022-08-09T04:30:07.865Z,13.54
2022-08-09T04:31:09.148Z,13.55
2022-08-09T04:32:06.829Z,13.55
2022-08-09T04:33:07.802Z,13.52
2022-08-09T04:34:06.895Z,13.51
2022-08-09T04:35:08.628Z,13.54
2022-08-09T04:36:06.795Z,13.52
2022-08-09T04:37:06.760Z,13.52
2022-08-09T04:38:06.762Z,13.52
2022-08-09T04:39:06.856Z,13.54
2022-08-09T04:40:06.773Z,13.52
2022-08-09T04:41:06.749Z,13.48
2022-08-09T04:42:09.378Z,13.55
2022-08-09T04:43:06.716Z,13.59
2022-08-09T04:44:09.753Z,13.62
2022-08-09T04:45:06.724Z,13.66
2022-08-09T04:46:06.796Z,13.67
2022-08-09T04:47:07.692Z,13.69
2022-08-09T04:48:10.370Z,13.71
2022-08-09T04:49:06.664Z,13.75
2022-08-09T04:50:06.655Z,13.75
2022-08-09T04:51:06.646Z,13.78
2022-08-09T04:52:07.367Z,13.79
2022-08-09T04:53:06.602Z,13.84
2022-08-09T04:54:07.582Z,13.85
2022-08-09T04:55:13.201Z,13.88
2022-08-09T04:56:07.574Z,13.91
2022-08-09T04:57:10.039Z,13.92
2022-08-09T04:58:09.656Z,13.92
2022-08-09T04:59:15.395Z,13.96
2022-08-09T05:00:07.543Z,13.95
2022-08-09T05:01:16.477Z,13.96
2022-08-09T05:02:07.506Z,13.97
2022-08-09T05:03:30.675Z,13.99
2022-08-09T05:04:07.511Z,13.99
2022-08-09T05:05:10.126Z,14.02
2022-08-09T05:06:07.512Z,14.02
2022-08-09T05:07:06.442Z,14.06
2022-08-09T05:08:07.442Z,14.06
2022-08-09T05:09:06.424Z,14.10
2022-08-09T05:10:06.416Z,14.12
2022-08-09T05:11:07.568Z,14.12
2022-08-09T05:12:06.404Z,14.17
2022-08-09T05:13:06.673Z,14.20
2022-08-09T05:14:06.794Z,14.21
2022-08-09T05:15:11.494Z,14.25
2022-08-09T05:16:07.353Z,14.29
2022-08-09T05:17:06.344Z,14.37
2022-08-09T05:18:42.381Z,14.42
2022-08-09T05:19:07.763Z,14.45
2022-08-09T05:20:06.327Z,14.51
2022-08-09T05:21:10.114Z,14.55
2022-08-09T05:22:07.298Z,14.58
2022-08-09T05:23:56.722Z,14.60
2022-08-09T05:24:07.671Z,14.65
2022-08-09T05:25:06.305Z,14.70
2022-08-09T05:26:06.254Z,14.75
2022-08-09T05:27:06.275Z,14.84
2022-08-09T05:28:06.196Z,14.88
2022-08-09T05:29:06.487Z,14.92
2022-08-09T05:30:06.279Z,14.98
2022-08-09T05:31:09.325Z,15.01
2022-08-09T05:32:06.171Z,15.06
2022-08-09T05:33:09.455Z,15.11
2022-08-09T05:34:06.142Z,15.14
2022-08-09T05:35:07.141Z,15.19
2022-08-09T05:36:07.136Z,15.21
2022-08-09T05:37:07.370Z,15.28
2022-08-09T05:38:07.120Z,15.32
2022-08-09T05:39:06.142Z,15.36
2022-08-09T05:40:06.112Z,15.39
2022-08-09T05:41:06.089Z,15.44
2022-08-09T05:42:07.146Z,15.49
2022-08-09T05:43:06.098Z,15.51
2022-08-09T05:44:06.185Z,15.54
2022-08-09T05:45:06.057Z,15.60
2022-08-09T05:46:06.169Z,15.64
2022-08-09T05:47:06.020Z,15.69
2022-08-09T05:48:06.003Z,15.71
2022-08-09T05:49:07.410Z,15.80
2022-08-09T05:50:31.070Z,15.84
2022-08-09T05:51:30.198Z,15.86
2022-08-09T05:52:06.955Z,15.90
2022-08-09T05:53:05.939Z,15.93
2022-08-09T05:54:06.949Z,16.00
2022-08-09T05:55:07.275Z,16.04
2022-08-09T05:56:05.952Z,16.07
2022-08-09T05:57:06.311Z,16.11
2022-08-09T05:58:07.293Z,16.15
2022-08-09T05:59:05.875Z,16.20
2022-08-09T06:00:05.857Z,16.23
2022-08-09T06:01:06.722Z,16.28
2022-08-09T06:02:05.939Z,16.31
2022-08-09T06:03:10.457Z,16.34
2022-08-09T06:04:06.850Z,16.41
2022-08-09T06:05:05.809Z,16.43
2022-08-09T06:06:06.462Z,16.46
2022-08-09T06:07:05.795Z,16.50
2022-08-09T06:08:11.159Z,16.56
2022-08-09T06:09:23.190Z,16.57
2022-08-09T06:10:06.746Z,16.58
2022-08-09T06:11:16.410Z,16.60
2022-08-09T06:12:06.737Z,16.64
2022-08-09T06:13:18.481Z,16.70
2022-08-09T06:14:06.928Z,16.75
2022-08-09T06:15:09.796Z,16.78
2022-08-09T06:16:05.747Z,16.83
2022-08-09T06:17:09.815Z,16.83
2022-08-09T06:18:05.677Z,16.83
2022-08-09T06:19:05.662Z,16.86
2022-08-09T06:20:05.640Z,16.89
2022-08-09T06:21:05.712Z,16.94
2022-08-09T06:22:05.642Z,16.97
2022-08-09T06:23:06.634Z,17.04
2022-08-09T06:24:06.627Z,17.11
2022-08-09T06:25:08.568Z,17.11
2022-08-09T06:26:06.567Z,17.12
2022-08-09T06:27:05.566Z,17.15
2022-08-09T06:28:05.547Z,17.16
2022-08-09T06:29:05.661Z,17.19
2022-08-09T06:30:09.676Z,17.23
2022-08-09T06:31:05.551Z,17.30
2022-08-09T06:32:08.324Z,17.33
2022-08-09T06:33:30.615Z,17.36
2022-08-09T06:34:06.582Z,17.38
2022-08-09T06:35:06.427Z,17.40
2022-08-09T06:36:07.381Z,17.43
2022-08-09T06:37:05.480Z,17.46
2022-08-09T06:38:06.782Z,17.51
2022-08-09T06:39:09.307Z,17.56
2022-08-09T06:40:13.476Z,17.63
2022-08-09T06:41:18.905Z,17.66
2022-08-09T06:42:09.043Z,17.70
2022-08-09T06:43:07.720Z,17.74
2022-08-09T06:44:05.400Z,17.78
2022-08-09T06:46:05.267Z,17.81
2022-08-09T06:46:10.936Z,17.84
2022-08-09T06:47:05.344Z,17.87
2022-08-09T06:48:05.386Z,17.92
2022-08-09T06:49:05.408Z,17.97
2022-08-09T06:50:14.274Z,18.02
2022-08-09T06:51:06.366Z,18.14
2022-08-09T06:52:05.295Z,18.21
2022-08-09T06:53:06.106Z,18.29
2022-08-09T06:54:05.845Z,18.37
2022-08-09T06:55:12.853Z,18.45
2022-08-09T06:56:15.665Z,18.50
2022-08-09T06:57:06.357Z,18.51
2022-08-09T07:00:46.534Z,18.57
2022-08-09T07:00:51.002Z,18.69
2022-08-09T07:00:57.181Z,18.63
2022-08-09T07:01:21.466Z,18.75
2022-08-09T07:02:30.865Z,18.78
2022-08-09T07:03:16.692Z,18.82
2022-08-09T07:04:19.847Z,18.88
2022-08-09T07:05:06.718Z,18.95
2022-08-09T07:07:59.995Z,19.06
2022-08-09T07:08:16.240Z,19.08
2022-08-09T07:09:54.165Z,19.16
2022-08-09T07:10:29.522Z,19.23
2022-08-09T07:11:23.558Z,19.31
2022-08-09T07:12:17.899Z,19.32
2022-08-09T07:13:27.499Z,19.40
2022-08-09T07:14:16.172Z,19.46
2022-08-09T07:16:36.738Z,19.54
2022-08-09T07:16:41.782Z,19.61
2022-08-09T07:17:16.135Z,19.63
2022-08-09T07:18:15.278Z,19.65
2022-08-09T07:19:18.564Z,19.71
2022-08-09T07:20:16.110Z,19.73
2022-08-09T07:21:15.087Z,19.74
2022-08-09T07:22:15.087Z,19.77
2022-08-09T07:23:18.719Z,19.83
2022-08-09T07:24:15.069Z,19.87
2022-08-09T07:25:15.578Z,19.88
2022-08-09T07:26:15.041Z,19.91
2022-08-09T07:27:27.360Z,19.96
2022-08-09T07:28:19.171Z,20.01
2022-08-09T07:29:15.011Z,20.05
2022-08-09T07:30:15.011Z,20.10
2022-08-09T07:31:14.972Z,20.17
2022-08-09T07:32:14.969Z,20.21
2022-08-09T07:33:16.706Z,20.28
2022-08-09T07:34:19.493Z,20.32
2022-08-09T07:35:15.952Z,20.33
2022-08-09T07:36:14.936Z,20.35
2022-08-09T07:37:15.919Z,20.39
2022-08-09T07:38:14.919Z,20.38
2022-08-09T07:39:20.376Z,20.42
2022-08-09T07:40:16.610Z,20.52
2022-08-09T07:41:14.976Z,20.59
2022-08-09T07:42:14.879Z,20.67
2022-08-09T07:43:16.788Z,20.73
2022-08-09T07:44:14.856Z,20.77
2022-08-09T07:45:22.809Z,20.79
2022-08-09T07:46:17.275Z,20.74
2022-08-09T07:47:16.273Z,20.73
2022-08-09T07:48:25.544Z,20.74
2022-08-09T07:49:15.789Z,20.82
2022-08-09T07:50:14.785Z,20.91
2022-08-09T07:52:05.878Z,20.94
2022-08-09T07:52:16.988Z,20.99
2022-08-09T07:53:14.746Z,21.07
2022-08-09T07:54:15.741Z,21.13
2022-08-09T07:55:15.733Z,21.10
2022-08-09T07:56:27.150Z,21.17
2022-08-09T07:57:15.726Z,21.24
2022-08-09T07:58:14.692Z,21.27
2022-08-09T07:59:24.972Z,21.32
2022-08-09T08:00:20.593Z,21.32
2022-08-09T08:01:15.710Z,21.35
2022-08-09T08:02:19.068Z,21.28
2022-08-09T08:03:14.658Z,21.32
2022-08-09T08:04:14.633Z,21.40
2022-08-09T08:05:18.594Z,21.50
2022-08-09T08:06:14.605Z,21.53
2022-08-09T08:08:42.655Z,21.62
2022-08-09T08:09:01.125Z,21.65
2022-08-09T08:09:34.299Z,21.61
2022-08-09T08:10:15.583Z,21.65
2022-08-09T08:12:09.130Z,21.72
2022-08-09T08:12:27.705Z,21.72
2022-08-09T08:13:15.536Z,21.75
2022-08-09T08:14:15.038Z,21.72
2022-08-09T08:15:16.688Z,21.74
2022-08-09T08:16:31.268Z,21.71
2022-08-09T08:17:35.420Z,21.71
2022-08-09T08:18:16.440Z,21.71
2022-08-09T08:19:14.520Z,21.71
2022-08-09T08:20:14.470Z,21.72
2022-08-09T08:21:14.449Z,21.79
2022-08-09T08:22:15.129Z,21.82
2022-08-09T08:23:16.729Z,21.88
2022-08-09T08:24:16.606Z,21.94
2022-08-09T08:25:14.440Z,21.96
2022-08-09T08:26:14.408Z,22.02
2022-08-09T08:27:16.899Z,22.00
2022-08-09T08:28:14.981Z,21.99
2022-08-09T08:29:14.770Z,22.02
2022-08-09T08:30:15.356Z,22.02
2022-08-09T08:31:15.329Z,22.03
2022-08-09T08:32:14.335Z,22.07
2022-08-09T08:33:24.182Z,22.10
2022-08-09T08:34:15.315Z,22.15
2022-08-09T08:35:18.133Z,22.20
2022-08-09T08:36:14.305Z,22.28
2022-08-09T08:37:15.696Z,22.37
2022-08-09T08:38:14.267Z,22.40
2022-08-09T08:39:14.316Z,22.42
2022-08-09T08:40:14.258Z,22.42
2022-08-09T08:41:14.240Z,22.43
2022-08-09T08:42:14.250Z,22.47
2022-08-09T08:43:14.214Z,22.47
2022-08-09T08:44:14.204Z,22.43
2022-08-09T08:45:14.211Z,22.40
2022-08-09T08:46:32.263Z,22.46
2022-08-09T08:47:15.204Z,22.40
2022-08-09T08:48:19.280Z,22.37
2022-08-09T08:49:19.077Z,22.37
2022-08-09T08:50:14.187Z,22.39
2022-08-09T08:51:15.104Z,22.42
2022-08-09T08:52:29.408Z,22.47
2022-08-09T08:53:15.736Z,22.61
2022-08-09T08:54:20.116Z,22.70
2022-08-09T08:55:19.023Z,22.77
2022-08-09T08:56:28.234Z,22.86
2022-08-09T08:57:15.106Z,22.95
2022-08-09T08:58:14.100Z,23.00
2022-08-09T08:59:19.068Z,23.04
2022-08-09T09:00:20.495Z,23.07
2022-08-09T09:01:20.663Z,23.15
2022-08-09T09:02:15.058Z,23.17
2022-08-09T09:03:22.869Z,23.22
2022-08-09T09:04:14.994Z,23.28
2022-08-09T09:05:13.996Z,23.31
2022-08-09T09:06:13.977Z,23.33
2022-08-09T09:07:14.000Z,23.40
2022-08-09T09:08:30.732Z,23.42
2022-08-09T09:09:21.196Z,23.42
2022-08-09T09:10:14.965Z,23.48
2022-08-09T09:11:19.834Z,23.57
2022-08-09T09:12:16.805Z,23.60
2022-08-09T09:13:15.097Z,23.66
2022-08-09T09:14:15.765Z,23.68
2022-08-09T09:15:28.300Z,23.70
2022-08-09T09:16:14.882Z,23.70
2022-08-09T09:17:16.415Z,23.72
2022-08-09T09:18:13.881Z,23.66
2022-08-09T09:20:15.406Z,23.85
2022-08-09T09:21:13.834Z,23.93
2022-08-09T09:22:13.813Z,24.02
2022-08-09T09:23:14.030Z,24.09
2022-08-09T09:24:21.535Z,24.03
2022-08-09T09:26:00.524Z,24.10
2022-08-09T09:26:14.822Z,24.10
2022-08-09T09:27:22.065Z,24.12
2022-08-09T09:28:21.457Z,24.18
2022-08-09T09:29:17.128Z,24.22
2022-08-09T09:30:39.987Z,24.22
2022-08-09T09:31:17.674Z,24.20
2022-08-09T09:32:15.513Z,24.20
2022-08-09T09:33:16.571Z,24.25
2022-08-09T09:34:14.442Z,24.30
2022-08-09T09:35:15.939Z,24.37
2022-08-09T09:36:20.974Z,24.42
2022-08-09T09:37:14.685Z,24.47
2022-08-09T09:38:18.420Z,24.57
2022-08-09T09:39:14.712Z,24.64
2022-08-09T09:40:13.679Z,24.69
2022-08-09T09:41:13.622Z,24.71
2022-08-09T09:42:13.627Z,24.78
2022-08-09T09:43:13.744Z,24.78
2022-08-09T09:44:15.664Z,24.76
2022-08-09T09:45:26.346Z,24.81
2022-08-09T09:47:14.541Z,24.85
2022-08-09T09:48:13.568Z,24.85
2022-08-09T09:49:13.656Z,24.93
2022-08-09T09:50:17.514Z,24.93
2022-08-09T09:51:25.916Z,24.91
2022-08-09T09:52:16.736Z,24.95
2022-08-09T09:53:14.477Z,25.00
2022-08-09T09:54:19.105Z,25.05
2022-08-09T09:55:24.191Z,25.06
2022-08-09T09:56:19.696Z,25.05
2022-08-09T09:58:03.948Z,25.18
2022-08-09T09:58:19.121Z,25.28
2022-08-09T09:59:16.185Z,25.38
2022-08-09T10:00:13.447Z,25.51
2022-08-09T10:01:31.292Z,25.69
2022-08-09T10:02:14.376Z,25.82
2022-08-09T10:03:14.148Z,25.98
2022-08-09T10:04:13.418Z,26.12
2022-08-09T10:05:13.368Z,26.33
2022-08-09T10:06:13.363Z,26.40
2022-08-09T10:07:13.338Z,26.39
2022-08-09T10:08:27.698Z,26.60
2022-08-09T10:09:22.372Z,26.89
2022-08-09T10:10:14.322Z,27.17
2022-08-09T10:11:52.753Z,27.37
2022-08-09T10:12:28.593Z,27.65
2022-08-09T10:13:24.713Z,27.93
2022-08-09T10:14:14.346Z,28.15
2022-08-09T10:15:17.588Z,28.41
2022-08-09T10:16:57.076Z,28.44
2022-08-09T10:17:39.264Z,28.62
2022-08-09T10:18:14.443Z,28.49
2022-08-09T10:19:13.208Z,28.48
2022-08-09T10:20:15.194Z,28.55
2022-08-09T10:21:13.418Z,28.64
2022-08-09T10:22:13.156Z,28.78
2022-08-09T10:23:13.527Z,28.88
2022-08-09T10:24:13.148Z,28.95
2022-08-09T10:25:14.521Z,28.90
2022-08-09T10:26:13.211Z,29.23
2022-08-09T10:27:17.383Z,29.36
2022-08-09T10:28:14.111Z,29.43
2022-08-09T10:29:21.325Z,29.42
2022-08-09T10:32:02.526Z,29.53
2022-08-09T10:32:38.597Z,30.15
2022-08-09T10:34:04.431Z,30.13
2022-08-09T10:34:32.291Z,29.94
2022-08-09T10:35:14.053Z,29.82
2022-08-09T10:36:13.081Z,29.33
2022-08-09T10:37:13.938Z,28.95
2022-08-09T10:38:33.712Z,28.90
2022-08-09T10:39:18.254Z,28.64
2022-08-09T10:40:32.455Z,28.66
2022-08-09T10:41:13.964Z,28.70
2022-08-09T10:42:12.963Z,28.73
2022-08-09T10:43:13.117Z,28.71
2022-08-09T10:44:12.934Z,28.70
2022-08-09T10:45:16.684Z,28.66
2022-08-09T10:46:19.180Z,28.44
2022-08-09T10:48:07.079Z,28.22
2022-08-09T10:48:29.713Z,28.12
2022-08-09T10:49:13.899Z,28.14
2022-08-09T10:50:15.015Z,28.02
2022-08-09T10:51:13.606Z,27.97
2022-08-09T10:52:13.600Z,27.94
2022-08-09T10:53:13.847Z,27.90
2022-08-09T10:54:13.178Z,27.88
2022-08-09T10:55:13.281Z,27.94
2022-08-09T10:56:12.823Z,28.09
2022-08-09T10:57:12.800Z,28.12
2022-08-09T10:58:16.822Z,28.09
2022-08-09T10:59:13.809Z,28.02
2022-08-09T11:00:12.796Z,27.99
2022-08-09T11:03:13.616Z,27.92
2022-08-09T11:03:46.884Z,27.93
2022-08-09T11:03:46.931Z,27.97
2022-08-09T11:04:20.157Z,28.04
2022-08-09T11:05:13.753Z,28.04
2022-08-09T11:06:13.737Z,27.81
2022-08-09T11:07:12.701Z,27.13
2022-08-09T11:08:12.708Z,26.81
2022-08-09T11:09:15.322Z,26.54
2022-08-09T11:10:12.674Z,26.70
2022-08-09T11:11:12.711Z,27.06
2022-08-09T11:12:12.649Z,27.43
2022-08-09T11:13:12.677Z,27.72
2022-08-09T11:14:16.431Z,27.78
2022-08-09T11:15:18.421Z,27.77
2022-08-09T11:16:13.633Z,27.47
2022-08-09T11:17:13.620Z,27.22
2022-08-09T11:18:12.647Z,27.22
2022-08-09T11:19:12.598Z,27.46
2022-08-09T11:20:22.115Z,27.62
2022-08-09T11:21:13.903Z,27.62
2022-08-09T11:22:18.767Z,27.32
2022-08-09T11:23:13.658Z,26.67
2022-08-09T11:24:12.545Z,26.63
2022-08-09T11:25:12.540Z,26.63
2022-08-09T11:26:12.545Z,26.65
2022-08-09T11:27:12.512Z,26.60
2022-08-09T11:28:27.936Z,26.58
2022-08-09T11:29:13.493Z,26.39
2022-08-09T11:30:31.963Z,26.17
2022-08-09T11:31:13.500Z,26.26
2022-08-09T11:32:13.451Z,26.50
2022-08-09T11:33:12.454Z,26.60
2022-08-09T11:34:12.450Z,26.60
2022-08-09T11:35:12.451Z,26.48
2022-08-09T11:36:14.826Z,26.58
2022-08-09T11:37:18.057Z,26.87
2022-08-09T11:38:13.442Z,27.28
2022-08-09T11:39:12.495Z,27.59
2022-08-09T11:40:12.389Z,27.79
2022-08-09T11:41:12.932Z,28.03
2022-08-09T11:42:14.834Z,28.22
2022-08-09T11:43:12.356Z,28.33
2022-08-09T11:44:12.413Z,28.36
2022-08-09T11:45:12.350Z,28.31
2022-08-09T11:49:58.241Z,28.54
2022-08-09T11:50:53.186Z,28.59
2022-08-09T11:52:56.523Z,28.80
2022-08-09T11:53:16.263Z,29.00
2022-08-09T11:54:01.640Z,29.00
2022-08-09T11:54:34.827Z,28.86
2022-08-09T11:55:34.985Z,28.85
2022-08-09T11:56:41.426Z,28.74
2022-08-09T11:57:47.575Z,28.78
2022-08-09T11:58:33.858Z,28.85
2022-08-09T11:59:33.601Z,28.86
2022-08-09T12:00:31.663Z,28.86
2022-08-09T12:02:16.110Z,28.93
2022-08-09T12:02:37.456Z,29.00
2022-08-09T12:03:56.925Z,28.83
2022-08-09T12:04:37.562Z,28.78
2022-08-09T12:05:37.151Z,28.86
2022-08-09T12:06:35.285Z,29.02
2022-08-09T12:07:34.421Z,29.19
2022-08-09T12:08:32.298Z,29.23
2022-08-09T12:09:34.000Z,29.41
2022-08-09T12:10:38.737Z,29.39
2022-08-09T12:11:44.731Z,29.34
2022-08-09T12:12:32.342Z,29.42
2022-08-09T12:14:08.169Z,29.67
2022-08-09T12:14:40.487Z,29.57
2022-08-09T12:15:50.466Z,29.53
2022-08-09T12:16:38.236Z,29.58
2022-08-09T12:17:43.239Z,29.64
2022-08-09T12:18:33.615Z,29.83
2022-08-09T12:19:31.178Z,29.87
2022-08-09T12:20:31.137Z,30.04
2022-08-09T12:21:32.640Z,30.13
2022-08-09T12:22:32.997Z,30.13
2022-08-09T12:23:56.635Z,30.24
2022-08-09T12:24:32.297Z,30.38
2022-08-09T12:25:31.772Z,30.37
2022-08-09T12:26:32.093Z,30.35
2022-08-09T12:29:12.471Z,30.39
2022-08-09T12:29:13.384Z,30.31
2022-08-09T12:29:43.639Z,30.37
2022-08-09T12:30:36.561Z,30.43
2022-08-09T12:31:59.333Z,30.60
2022-08-09T12:32:32.368Z,30.58
2022-08-09T12:33:51.038Z,30.53
2022-08-09T12:34:32.051Z,30.43
2022-08-09T12:35:36.019Z,30.35
2022-08-09T12:36:34.031Z,30.20
2022-08-09T12:37:31.009Z,30.02
2022-08-09T12:38:38.521Z,29.60
2022-08-09T12:39:31.997Z,29.26
2022-08-09T12:40:31.963Z,29.36
2022-08-09T12:41:36.334Z,29.71
2022-08-09T12:42:32.147Z,29.80
2022-08-09T12:44:05.673Z,30.10
2022-08-09T12:44:37.262Z,30.32
2022-08-09T12:45:34.507Z,30.49
2022-08-09T12:46:32.042Z,30.79
2022-08-09T12:47:37.184Z,30.92
2022-08-09T12:48:37.323Z,31.04
2022-08-09T12:49:31.864Z,30.80
2022-08-09T12:50:30.880Z,30.77
2022-08-09T12:52:00.240Z,31.09
2022-08-09T12:52:44.286Z,31.34
2022-08-09T12:53:37.765Z,31.57
2022-08-09T12:54:31.839Z,31.38
2022-08-09T12:56:15.327Z,31.31
2022-08-09T12:56:43.762Z,31.38
2022-08-09T12:57:31.792Z,31.44
2022-08-09T12:58:30.801Z,31.06
2022-08-09T12:59:39.740Z,30.99
2022-08-09T13:00:31.761Z,30.86
2022-08-09T13:01:30.869Z,31.02